Time;durP1;ratioP1;P1;durP2;ratioP2;P2;SDS_P1;SDS_P2;PMS_P1;PMS_P2;Temp;Humidity;BMP_temperature;BMP_pressure;BME280_temperature;BME280_humidity;BME280_pressure;Samples;Min_cycle;Max_cycle;Signal;HPM_P1;HPM_P2
2023/06/26 00:00:07;;;;;;;;;;;22.90;74.20;;;;;;6232834;28;1417;-79
2023/06/26 00:03:09;;;;;;;;;;;22.80;74.10;;;;;;6223636;28;3042;-78
2023/06/26 00:06:10;;;;;;;;;;;22.80;74.90;;;;;;6225818;28;1025;-79
2023/06/26 00:09:13;;;;;;;;;;;22.80;74.70;;;;;;6230371;28;1437;-77
2023/06/26 00:12:16;;;;;;;;;;;22.60;74.30;;;;;;6252114;28;1350;-76
2023/06/26 00:15:18;;;;;;;;;;;22.50;75.70;;;;;;6253062;28;1906;-79
2023/06/26 00:18:20;;;;;;;;;;;22.50;75.80;;;;;;6253334;28;1056;-78
2023/06/26 00:21:21;;;;;;;;;;;22.40;76.10;;;;;;6249147;28;2404;-76
2023/06/26 00:24:23;;;;;;;;;;;22.30;76.60;;;;;;6253142;28;1028;-79
2023/06/26 00:27:26;;;;;;;;;;;22.30;76.60;;;;;;6252907;28;1004;-77
2023/06/26 00:30:28;;;;;;;;;;;22.20;76.90;;;;;;6252677;28;1085;-77
2023/06/26 00:33:30;;;;;;;;;;;22.30;77.40;;;;;;6249979;28;1457;-78
2023/06/26 00:36:32;;;;;;;;;;;22.20;76.60;;;;;;6252392;28;1965;-78
2023/06/26 00:39:34;;;;;;;;;;;22.00;77.30;;;;;;6252553;28;1033;-78
2023/06/26 00:42:37;;;;;;;;;;;21.80;77.40;;;;;;6238920;28;1397;-77
2023/06/26 00:45:39;;;;;;;;;;;21.80;78.20;;;;;;6229903;28;1316;-79
2023/06/26 00:48:43;;;;;;;;;;;21.80;79.20;;;;;;6211821;28;1464;-77
2023/06/26 00:51:44;;;;;;;;;;;21.80;78.80;;;;;;6206950;28;1386;-76
2023/06/26 00:54:46;;;;;;;;;;;21.70;78.40;;;;;;6227359;28;1898;-77
2023/06/26 00:57:49;;;;;;;;;;;21.60;79.80;;;;;;6238883;28;1398;-76
2023/06/26 01:00:54;;;;;;;;;;;21.60;79.70;;;;;;6251828;28;984;-75
2023/06/26 01:03:56;;;;;;;;;;;21.60;80.30;;;;;;6229635;28;1517;-77
2023/06/26 01:06:58;;;;;;;;;;;21.60;79.80;;;;;;6227300;28;1025;-77
2023/06/26 01:10:00;;;;;;;;;;;21.50;80.20;;;;;;6227209;28;1032;-75
2023/06/26 01:13:03;;;;;;;;;;;21.40;80.70;;;;;;6233257;28;1449;-76
2023/06/26 01:16:06;;;;;;;;;;;21.30;80.40;;;;;;6251382;28;1883;-78
2023/06/26 01:19:11;;;;;;;;;;;21.20;80.80;;;;;;6249081;28;1396;-74
2023/06/26 01:22:18;;;;;;;;;;;21.10;81.20;;;;;;6248519;28;1496;-77
2023/06/26 01:25:24;;;;;;;;;;;21.00;81.40;;;;;;6202747;28;1060;-75
2023/06/26 01:28:28;;;;;;;;;;;21.00;82.60;;;;;;6202423;28;1100;-76
2023/06/26 01:31:31;;;;;;;;;;;21.10;82.80;;;;;;6202610;28;1063;-76
2023/06/26 01:34:33;;;;;;;;;;;21.20;82.80;;;;;;6221563;28;1388;-77
2023/06/26 01:37:34;;;;;;;;;;;21.30;83.00;;;;;;6225795;28;1983;-78
2023/06/26 01:40:36;;;;;;;;;;;21.40;82.50;;;;;;6226632;28;1172;-79
2023/06/26 01:43:45;;;;;;;;;;;21.30;83.00;;;;;;6234200;28;1408;-79
2023/06/26 01:46:55;;;;;;;;;;;21.30;83.20;;;;;;6226429;28;1035;-77
2023/06/26 01:50:01;;;;;;;;;;;21.30;83.60;;;;;;6226737;28;1079;-76
2023/06/26 01:53:05;;;;;;;;;;;21.30;83.80;;;;;;6228690;28;1581;-76
2023/06/26 01:56:09;;;;;;;;;;;21.30;83.80;;;;;;6253191;28;1898;-79
2023/06/26 01:59:13;;;;;;;;;;;21.20;83.60;;;;;;6266407;28;1051;-77
2023/06/26 02:02:15;;;;;;;;;;;21.10;84.00;;;;;;6256584;28;3522;-77
2023/06/26 02:05:17;;;;;;;;;;;20.90;84.50;;;;;;6265138;28;1514;-75
2023/06/26 02:08:19;;;;;;;;;;;20.80;84.50;;;;;;6253928;28;1045;-75
2023/06/26 02:11:21;;;;;;;;;;;20.80;85.20;;;;;;6250644;28;1061;-76
2023/06/26 02:14:24;;;;;;;;;;;20.80;85.30;;;;;;6248890;28;1490;-77
2023/06/26 02:17:25;;;;;;;;;;;20.90;85.30;;;;;;6250573;28;1902;-77
2023/06/26 02:20:27;;;;;;;;;;;20.90;85.70;;;;;;6249282;28;1433;-76
2023/06/26 02:23:29;;;;;;;;;;;21.00;85.80;;;;;;6243006;28;1390;-80
2023/06/26 02:26:30;;;;;;;;;;;20.90;85.10;;;;;;6231628;28;1025;-77
2023/06/26 02:29:33;;;;;;;;;;;20.60;85.20;;;;;;6225731;28;2544;-78
2023/06/26 02:32:35;;;;;;;;;;;20.40;86.20;;;;;;6237440;28;1452;-76
2023/06/26 02:35:37;;;;;;;;;;;20.30;87.10;;;;;;6233032;28;1906;-76
2023/06/26 02:38:39;;;;;;;;;;;20.30;87.40;;;;;;6249606;28;1143;-77
2023/06/26 02:41:40;;;;;;;;;;;20.40;87.80;;;;;;6249745;28;1971;-77
2023/06/26 02:44:43;;;;;;;;;;;20.50;87.80;;;;;;6247700;28;1445;-77
2023/06/26 02:47:45;;;;;;;;;;;20.50;87.90;;;;;;6225048;28;1036;-76
2023/06/26 02:50:47;;;;;;;;;;;20.50;88.10;;;;;;6224612;28;1410;-76
2023/06/26 02:53:48;;;;;;;;;;;20.50;88.50;;;;;;6224984;28;1059;-77
2023/06/26 02:56:50;;;;;;;;;;;20.50;88.50;;;;;;6223462;28;1914;-77
2023/06/26 02:59:53;;;;;;;;;;;20.50;87.00;;;;;;6224955;28;1057;-75
2023/06/26 03:02:55;;;;;;;;;;;20.40;88.60;;;;;;6224960;28;1089;-77
2023/06/26 03:05:56;;;;;;;;;;;20.50;88.70;;;;;;6224864;28;1393;-80
2023/06/26 03:08:58;;;;;;;;;;;20.60;87.70;;;;;;6247872;28;1487;-77
2023/06/26 03:12:00;;;;;;;;;;;20.60;88.30;;;;;;6249335;28;1035;-78
2023/06/26 03:15:03;;;;;;;;;;;20.60;86.70;;;;;;6249156;28;1140;-74
2023/06/26 03:18:05;;;;;;;;;;;20.50;86.30;;;;;;6247561;28;1910;-77
2023/06/26 03:21:07;;;;;;;;;;;20.60;86.40;;;;;;6248068;28;1469;-76
2023/06/26 03:24:08;;;;;;;;;;;20.60;85.00;;;;;;6248121;28;1962;-78
2023/06/26 03:27:10;;;;;;;;;;;20.60;85.90;;;;;;6240060;28;1432;-76
2023/06/26 03:30:14;;;;;;;;;;;20.60;86.00;;;;;;6224076;28;1444;-78
2023/06/26 03:33:16;;;;;;;;;;;20.60;85.20;;;;;;6224386;28;1112;-77
2023/06/26 03:36:17;;;;;;;;;;;20.60;86.20;;;;;;6224587;28;1977;-75
2023/06/26 03:39:19;;;;;;;;;;;20.60;85.40;;;;;;6224477;28;1339;-75
2023/06/26 03:42:21;;;;;;;;;;;20.60;85.00;;;;;;6225918;28;1412;-77
2023/06/26 03:45:24;;;;;;;;;;;20.60;85.30;;;;;;6253700;28;1166;-77
2023/06/26 03:48:25;;;;;;;;;;;20.60;86.00;;;;;;6253813;28;1117;-76
2023/06/26 03:51:27;;;;;;;;;;;20.60;85.70;;;;;;6253810;28;1059;-77
2023/06/26 03:54:29;;;;;;;;;;;20.70;85.30;;;;;;6250773;28;1417;-77
2023/06/26 03:57:31;;;;;;;;;;;20.70;85.40;;;;;;6253533;28;1898;-80
2023/06/26 04:00:34;;;;;;;;;;;20.60;85.20;;;;;;6253306;28;983;-77
2023/06/26 04:03:35;;;;;;;;;;;20.60;85.40;;;;;;6251842;28;1381;-79
2023/06/26 04:06:37;;;;;;;;;;;20.50;86.00;;;;;;6247488;28;1434;-78
2023/06/26 04:09:39;;;;;;;;;;;20.50;86.50;;;;;;6248311;28;1421;-78
2023/06/26 04:12:40;;;;;;;;;;;20.50;85.90;;;;;;6228801;28;1092;-77
2023/06/26 04:15:43;;;;;;;;;;;20.50;86.50;;;;;;6227159;28;1977;-76
2023/06/26 04:18:45;;;;;;;;;;;20.50;86.00;;;;;;6247304;28;1422;-77
2023/06/26 04:21:47;;;;;;;;;;;20.60;86.00;;;;;;6252809;28;1088;-77
2023/06/26 04:24:49;;;;;;;;;;;20.60;86.40;;;;;;6237854;28;1370;-76
2023/06/26 04:27:50;;;;;;;;;;;20.70;85.80;;;;;;6228244;28;1156;-77
2023/06/26 04:30:54;;;;;;;;;;;20.70;86.20;;;;;;6206948;28;2960;-75
2023/06/26 04:33:57;;;;;;;;;;;20.80;85.90;;;;;;6216360;28;1574;-77
2023/06/26 04:36:59;;;;;;;;;;;21.00;85.90;;;;;;6238237;28;1990;-77
2023/06/26 04:40:01;;;;;;;;;;;21.00;86.30;;;;;;6227683;28;1959;-79
2023/06/26 04:43:02;;;;;;;;;;;21.10;86.00;;;;;;6228020;28;1011;-78
2023/06/26 04:46:06;;;;;;;;;;;21.10;85.10;;;;;;6227688;28;1021;-76
2023/06/26 04:49:08;;;;;;;;;;;21.10;85.20;;;;;;6227837;28;1113;-77
2023/06/26 04:52:09;;;;;;;;;;;21.20;85.60;;;;;;6227029;28;1490;-77
2023/06/26 04:55:11;;;;;;;;;;;21.20;85.80;;;;;;6202753;28;1104;-79
2023/06/26 04:58:13;;;;;;;;;;;21.20;85.50;;;;;;6203293;28;1888;-76
2023/06/26 05:01:16;;;;;;;;;;;21.20;84.70;;;;;;6202964;28;1155;-79
2023/06/26 05:04:18;;;;;;;;;;;21.20;84.90;;;;;;6203247;28;1026;-77
2023/06/26 05:07:20;;;;;;;;;;;21.10;85.10;;;;;;6203357;28;1029;-79
2023/06/26 05:10:21;;;;;;;;;;;21.20;85.30;;;;;;6203080;28;1213;-77
2023/06/26 05:13:23;;;;;;;;;;;21.20;85.40;;;;;;6203028;28;1025;-77
2023/06/26 05:16:26;;;;;;;;;;;21.20;84.90;;;;;;6202972;28;1899;-76
2023/06/26 05:19:28;;;;;;;;;;;21.30;84.10;;;;;;6202900;28;1077;-77
2023/06/26 05:22:29;;;;;;;;;;;21.40;84.90;;;;;;6203253;28;1009;-76
2023/06/26 05:25:33;;;;;;;;;;;21.40;84.00;;;;;;6202507;28;1022;-75
2023/06/26 05:28:36;;;;;;;;;;;21.40;83.50;;;;;;6202732;28;1047;-77
2023/06/26 05:31:41;;;;;;;;;;;21.50;83.80;;;;;;6202585;28;1003;-75
2023/06/26 05:34:43;;;;;;;;;;;21.50;83.60;;;;;;6202401;28;1168;-80
2023/06/26 05:37:45;;;;;;;;;;;21.60;82.60;;;;;;6202487;28;1974;-78
2023/06/26 05:40:48;;;;;;;;;;;21.60;82.60;;;;;;6202215;28;1117;-76
2023/06/26 05:43:49;;;;;;;;;;;21.60;83.30;;;;;;6202106;28;1021;-78
2023/06/26 05:46:52;;;;;;;;;;;21.60;83.10;;;;;;6203322;28;1022;-77
2023/06/26 05:49:54;;;;;;;;;;;21.70;84.10;;;;;;6203549;28;1032;-76
2023/06/26 05:52:57;;;;;;;;;;;21.70;84.00;;;;;;6202151;28;1201;-77
2023/06/26 05:55:59;;;;;;;;;;;21.70;84.40;;;;;;6201860;28;1980;-77
2023/06/26 05:59:01;;;;;;;;;;;21.80;84.40;;;;;;6201693;28;1105;-77
2023/06/26 06:02:04;;;;;;;;;;;21.90;84.20;;;;;;6201875;28;1081;-79
2023/06/26 06:05:06;;;;;;;;;;;21.80;84.30;;;;;;6201464;28;1117;-79
2023/06/26 06:08:08;;;;;;;;;;;21.80;83.60;;;;;;6201535;28;1112;-78
2023/06/26 06:11:11;;;;;;;;;;;21.80;82.90;;;;;;6201437;28;1113;-78
2023/06/26 06:14:13;;;;;;;;;;;21.90;82.40;;;;;;6201528;28;1061;-78
2023/06/26 06:17:16;;;;;;;;;;;21.90;82.60;;;;;;6201924;28;1899;-77
2023/06/26 06:20:19;;;;;;;;;;;22.00;81.90;;;;;;6202239;28;1184;-76
2023/06/26 06:23:21;;;;;;;;;;;22.00;82.60;;;;;;6201503;28;1092;-76
2023/06/26 06:26:23;;;;;;;;;;;22.00;82.40;;;;;;6201210;28;1069;-77
2023/06/26 06:29:25;;;;;;;;;;;22.10;82.00;;;;;;6208042;28;2997;-76
2023/06/26 06:32:28;;;;;;;;;;;22.10;81.70;;;;;;6226079;28;1057;-77
2023/06/26 06:35:29;;;;;;;;;;;22.20;81.90;;;;;;6225534;28;1289;-77
2023/06/26 06:38:31;;;;;;;;;;;22.30;81.70;;;;;;6225710;28;1980;-77
2023/06/26 06:41:33;;;;;;;;;;;22.30;82.10;;;;;;6225280;28;2041;-78
2023/06/26 06:44:34;;;;;;;;;;;22.40;81.90;;;;;;6225336;28;1025;-78
2023/06/26 06:47:37;;;;;;;;;;;22.50;81.80;;;;;;6225085;28;1161;-76
2023/06/26 06:50:39;;;;;;;;;;;22.60;82.00;;;;;;6224917;28;1159;-78
2023/06/26 06:53:41;;;;;;;;;;;22.70;81.30;;;;;;6224887;28;2031;-78
2023/06/26 06:56:43;;;;;;;;;;;22.70;80.00;;;;;;6224684;28;1894;-78
2023/06/26 06:59:44;;;;;;;;;;;22.90;79.40;;;;;;6224730;28;1103;-77
2023/06/26 07:02:47;;;;;;;;;;;22.90;79.60;;;;;;6224860;28;1059;-77
2023/06/26 07:05:49;;;;;;;;;;;23.00;80.40;;;;;;6224942;28;1034;-77
2023/06/26 07:08:51;;;;;;;;;;;23.20;79.80;;;;;;6224986;28;1096;-78
2023/06/26 07:11:52;;;;;;;;;;;23.20;79.70;;;;;;6224497;28;1261;-78
2023/06/26 07:14:54;;;;;;;;;;;23.30;78.60;;;;;;6224734;28;1119;-78
2023/06/26 07:17:57;;;;;;;;;;;23.50;78.80;;;;;;6228337;28;1981;-77
2023/06/26 07:20:59;;;;;;;;;;;23.60;79.90;;;;;;6229715;28;1116;-78
2023/06/26 07:24:01;;;;;;;;;;;23.60;79.40;;;;;;6229629;28;1085;-79
2023/06/26 07:27:03;;;;;;;;;;;23.80;78.40;;;;;;6229411;28;1025;-78
2023/06/26 07:30:05;;;;;;;;;;;23.90;78.00;;;;;;6229177;28;979;-77
2023/06/26 07:33:08;;;;;;;;;;;24.00;77.60;;;;;;6229646;28;1223;-78
2023/06/26 07:36:10;;;;;;;;;;;24.10;76.80;;;;;;6229829;28;968;-77
2023/06/26 07:39:12;;;;;;;;;;;24.20;76.40;;;;;;6229223;28;1898;-80
2023/06/26 07:42:13;;;;;;;;;;;24.30;75.90;;;;;;6229524;28;1101;-77
2023/06/26 07:45:15;;;;;;;;;;;24.40;75.30;;;;;;6229092;28;1037;-76
2023/06/26 07:48:18;;;;;;;;;;;24.50;74.90;;;;;;6229196;28;1056;-76
2023/06/26 07:51:20;;;;;;;;;;;24.60;75.40;;;;;;6228779;28;975;-79
2023/06/26 07:54:22;;;;;;;;;;;24.60;75.00;;;;;;6229318;28;1086;-77
2023/06/26 07:57:23;;;;;;;;;;;24.70;74.70;;;;;;6228832;28;1894;-79
2023/06/26 08:00:26;;;;;;;;;;;24.80;74.50;;;;;;6228934;28;1132;-78
2023/06/26 08:03:29;;;;;;;;;;;24.90;74.70;;;;;;6229397;28;2972;-76
2023/06/26 08:06:30;;;;;;;;;;;25.00;75.10;;;;;;6235897;28;1992;-74
2023/06/26 08:09:33;;;;;;;;;;;25.00;75.00;;;;;;6229270;28;1028;-75
2023/06/26 08:12:36;;;;;;;;;;;25.10;74.90;;;;;;6228613;28;1087;-76
2023/06/26 08:15:39;;;;;;;;;;;25.20;75.20;;;;;;6228667;28;1085;-77
2023/06/26 08:18:42;;;;;;;;;;;25.30;75.00;;;;;;6228181;28;1902;-79
2023/06/26 08:21:44;;;;;;;;;;;25.40;74.60;;;;;;6228497;28;1093;-75
2023/06/26 08:24:46;;;;;;;;;;;25.50;74.40;;;;;;6228643;28;1109;-76
2023/06/26 08:27:47;;;;;;;;;;;25.60;74.40;;;;;;6228272;28;1020;-76
2023/06/26 08:30:49;;;;;;;;;;;25.70;73.70;;;;;;6228113;28;1038;-77
2023/06/26 08:33:52;;;;;;;;;;;25.80;72.60;;;;;;6229357;28;1389;-78
2023/06/26 08:36:54;;;;;;;;;;;25.90;72.70;;;;;;6228680;28;1902;-77
2023/06/26 08:39:56;;;;;;;;;;;26.00;72.00;;;;;;6227857;28;1094;-77
2023/06/26 08:42:57;;;;;;;;;;;26.10;71.00;;;;;;6227996;28;1029;-79
2023/06/26 08:46:00;;;;;;;;;;;26.20;71.50;;;;;;6227749;28;1093;-76
2023/06/26 08:49:09;;;;;;;;;;;26.30;71.60;;;;;;6227805;28;1042;-79
2023/06/26 08:52:15;;;;;;;;;;;26.40;72.20;;;;;;6227516;28;1058;-79
2023/06/26 08:55:17;;;;;;;;;;;26.50;72.20;;;;;;6227461;28;1275;-77
2023/06/26 08:58:19;;;;;;;;;;;26.50;70.80;;;;;;6227340;28;2046;-79
2023/06/26 09:01:21;;;;;;;;;;;26.60;70.60;;;;;;6227613;28;1116;-74
2023/06/26 09:04:24;;;;;;;;;;;26.70;69.50;;;;;;6227385;28;1100;-77
2023/06/26 09:07:26;;;;;;;;;;;26.80;70.00;;;;;;6227396;28;1115;-76
2023/06/26 09:10:28;;;;;;;;;;;27.00;67.70;;;;;;6227801;28;1158;-77
2023/06/26 09:13:29;;;;;;;;;;;27.00;67.80;;;;;;6230295;28;1131;-79
2023/06/26 09:16:31;;;;;;;;;;;27.10;69.20;;;;;;6227134;28;1072;-77
2023/06/26 09:19:37;;;;;;;;;;;27.20;68.40;;;;;;6227164;28;1993;-78
2023/06/26 09:22:41;;;;;;;;;;;27.40;68.10;;;;;;6227054;28;1124;-76
2023/06/26 09:25:44;;;;;;;;;;;27.40;67.40;;;;;;6226825;28;1041;-78
2023/06/26 09:28:46;;;;;;;;;;;27.60;67.10;;;;;;6227046;28;1079;-74
2023/06/26 09:31:47;;;;;;;;;;;27.60;65.80;;;;;;6226606;28;1028;-78
2023/06/26 09:34:53;;;;;;;;;;;27.70;66.10;;;;;;6226621;28;1137;-75
2023/06/26 09:37:55;;;;;;;;;;;27.80;65.80;;;;;;6226425;28;1980;-78
2023/06/26 09:40:57;;;;;;;;;;;27.80;65.40;;;;;;6226410;28;1055;-75
2023/06/26 09:44:02;;;;;;;;;;;28.00;65.20;;;;;;6226335;28;1041;-77
2023/06/26 09:47:05;;;;;;;;;;;28.00;63.90;;;;;;6226616;28;1060;-79
2023/06/26 09:50:22;;;;;;;;;;;28.10;63.80;;;;;;6226265;28;1022;-78
2023/06/26 09:53:24;;;;;;;;;;;28.10;64.20;;;;;;6226096;28;1278;-78
2023/06/26 09:56:26;;;;;;;;;;;28.30;63.60;;;;;;6226205;28;1055;-77
2023/06/26 09:59:27;;;;;;;;;;;28.40;63.90;;;;;;6226071;28;1979;-78
2023/06/26 10:02:29;;;;;;;;;;;28.40;63.90;;;;;;6225935;28;1075;-76
2023/06/26 10:05:32;;;;;;;;;;;28.50;64.10;;;;;;6225662;28;1100;-78
2023/06/26 10:08:35;;;;;;;;;;;28.70;62.80;;;;;;6225822;28;1117;-77
2023/06/26 10:11:41;;;;;;;;;;;28.70;62.60;;;;;;6225706;28;1136;-77
2023/06/26 10:14:43;;;;;;;;;;;28.80;62.80;;;;;;6226349;28;1057;-77
2023/06/26 10:17:46;;;;;;;;;;;28.90;63.20;;;;;;6226463;28;1899;-78
2023/06/26 10:20:50;;;;;;;;;;;28.80;61.60;;;;;;6226297;28;1039;-75
2023/06/26 10:23:52;;;;;;;;;;;28.80;61.40;;;;;;6225545;28;1055;-76
2023/06/26 10:27:00;;;;;;;;;;;28.90;62.20;;;;;;6225438;28;1102;-77
2023/06/26 10:30:05;;;;;;;;;;;28.90;61.40;;;;;;6225239;28;1128;-76
2023/06/26 10:33:07;;;;;;;;;;;29.00;62.00;;;;;;6225877;28;1104;-76
2023/06/26 10:36:18;;;;;;;;;;;29.10;61.20;;;;;;6225335;28;1080;-78
2023/06/26 10:39:20;;;;;;;;;;;29.20;60.30;;;;;;6225210;28;1988;-77
2023/06/26 10:42:36;;;;;;;;;;;29.20;58.70;;;;;;6225192;28;1093;-77
2023/06/26 10:45:44;;;;;;;;;;;29.30;58.70;;;;;;6225421;28;1129;-77
2023/06/26 10:48:57;;;;;;;;;;;29.40;59.30;;;;;;6225305;28;1053;-76
2023/06/26 10:52:02;;;;;;;;;;;29.60;59.10;;;;;;6224157;28;1085;-76
2023/06/26 10:55:03;;;;;;;;;;;29.60;58.10;;;;;;6224958;28;1100;-78
2023/06/26 10:58:05;;;;;;;;;;;29.70;56.90;;;;;;6224763;28;1898;-75
2023/06/26 11:01:25;;;;;;;;;;;29.80;56.30;;;;;;6224743;28;1951;-76
2023/06/26 11:04:38;;;;;;;;;;;29.70;56.50;;;;;;6225092;28;1028;-77
2023/06/26 11:08:03;;;;;;;;;;;29.70;56.90;;;;;;6224767;28;1057;-78
2023/06/26 11:11:05;;;;;;;;;;;29.60;56.30;;;;;;6224670;28;1131;-78
2023/06/26 11:14:07;;;;;;;;;;;29.50;58.00;;;;;;6224667;28;1042;-77
2023/06/26 11:17:10;;;;;;;;;;;29.40;59.30;;;;;;6224613;28;1075;-78
2023/06/26 11:20:13;;;;;;;;;;;29.40;60.00;;;;;;6224439;28;1898;-78
2023/06/26 11:23:20;;;;;;;;;;;29.40;60.40;;;;;;6224713;28;1120;-76
2023/06/26 11:26:22;;;;;;;;;;;29.50;61.10;;;;;;6224397;28;1319;-78
2023/06/26 11:29:24;;;;;;;;;;;29.40;61.90;;;;;;6224784;28;1097;-77
2023/06/26 11:32:27;;;;;;;;;;;29.50;62.70;;;;;;6224560;28;1046;-76
2023/06/26 11:35:30;;;;;;;;;;;29.50;62.70;;;;;;6224668;28;1387;-75
2023/06/26 11:38:39;;;;;;;;;;;29.60;62.20;;;;;;6224344;28;1969;-77
2023/06/26 11:41:41;;;;;;;;;;;29.60;62.40;;;;;;6224664;28;1034;-75
2023/06/26 11:44:44;;;;;;;;;;;29.80;62.20;;;;;;6224721;28;1239;-78
2023/06/26 11:47:45;;;;;;;;;;;29.90;61.30;;;;;;6224264;28;2073;-78
2023/06/26 11:50:51;;;;;;;;;;;29.90;61.20;;;;;;6224389;28;1100;-78
2023/06/26 11:53:54;;;;;;;;;;;29.90;61.30;;;;;;6224487;28;1170;-77
2023/06/26 11:56:59;;;;;;;;;;;29.80;60.90;;;;;;6224935;28;1037;-77
2023/06/26 12:00:11;;;;;;;;;;;29.70;61.30;;;;;;6224186;28;1906;-79
2023/06/26 12:03:13;;;;;;;;;;;29.90;61.60;;;;;;6226413;28;1121;-76
2023/06/26 12:06:15;;;;;;;;;;;29.90;60.90;;;;;;6228813;28;1000;-78
2023/06/26 12:09:19;;;;;;;;;;;29.90;61.60;;;;;;6229059;28;1022;-79
2023/06/26 12:12:21;;;;;;;;;;;30.00;60.30;;;;;;6229864;28;1154;-78
2023/06/26 12:15:23;;;;;;;;;;;30.20;59.80;;;;;;6229934;28;1133;-78
2023/06/26 12:18:26;;;;;;;;;;;30.20;59.40;;;;;;6228500;28;1973;-75
2023/06/26 12:21:46;;;;;;;;;;;30.20;59.30;;;;;;6228489;28;1076;-77
2023/06/26 12:24:49;;;;;;;;;;;30.20;59.50;;;;;;6228351;28;962;-76
2023/06/26 12:27:51;;;;;;;;;;;30.30;59.20;;;;;;6228534;28;1066;-76
2023/06/26 12:31:14;;;;;;;;;;;30.40;59.40;;;;;;6228053;28;1064;-77
2023/06/26 12:34:18;;;;;;;;;;;30.50;58.20;;;;;;6228013;28;1154;-78
2023/06/26 12:37:20;;;;;;;;;;;30.60;58.20;;;;;;6228303;28;1106;-78
2023/06/26 12:40:23;;;;;;;;;;;30.70;58.30;;;;;;6227912;28;1898;-77
2023/06/26 12:43:27;;;;;;;;;;;30.70;58.60;;;;;;6227812;28;1579;-77
2023/06/26 12:46:36;;;;;;;;;;;30.60;58.20;;;;;;6228095;28;1099;-77
2023/06/26 12:49:39;;;;;;;;;;;30.60;58.30;;;;;;6227717;28;1047;-78
2023/06/26 12:52:40;;;;;;;;;;;30.60;58.90;;;;;;6227754;28;1035;-77
2023/06/26 12:55:43;;;;;;;;;;;30.70;59.40;;;;;;6227499;28;1015;-78
2023/06/26 12:58:45;;;;;;;;;;;30.70;59.40;;;;;;6227700;28;1906;-77
2023/06/26 13:01:47;;;;;;;;;;;30.70;59.60;;;;;;6227188;28;1166;-79
2023/06/26 13:04:48;;;;;;;;;;;30.80;59.20;;;;;;6227506;28;1033;-79
2023/06/26 13:07:50;;;;;;;;;;;30.80;59.20;;;;;;6227237;28;1037;-75
2023/06/26 13:10:53;;;;;;;;;;;30.80;59.10;;;;;;6227367;28;1143;-78
2023/06/26 13:13:55;;;;;;;;;;;30.90;58.70;;;;;;6226247;28;1127;-78
2023/06/26 13:16:56;;;;;;;;;;;31.00;59.60;;;;;;6227312;28;1029;-77
2023/06/26 13:19:58;;;;;;;;;;;30.90;60.50;;;;;;6227135;28;1906;-77
2023/06/26 13:23:00;;;;;;;;;;;30.60;60.00;;;;;;6226981;28;1056;-77
2023/06/26 13:26:03;;;;;;;;;;;30.80;60.00;;;;;;6227177;28;1040;-78
2023/06/26 13:29:05;;;;;;;;;;;30.80;60.00;;;;;;6226664;28;1120;-79
2023/06/26 13:32:07;;;;;;;;;;;30.90;59.50;;;;;;6226997;28;1033;-76
2023/06/26 13:35:10;;;;;;;;;;;30.90;60.00;;;;;;6226321;28;1290;-79
2023/06/26 13:38:11;;;;;;;;;;;31.10;59.70;;;;;;6226722;28;1973;-78
2023/06/26 13:41:14;;;;;;;;;;;31.20;60.60;;;;;;6226369;28;1065;-78
2023/06/26 13:44:16;;;;;;;;;;;31.30;59.20;;;;;;6226614;28;1022;-78
2023/06/26 13:47:18;;;;;;;;;;;31.30;59.70;;;;;;6226522;28;1120;-77
2023/06/26 13:50:20;;;;;;;;;;;31.20;60.90;;;;;;6226741;28;1041;-77
2023/06/26 13:53:21;;;;;;;;;;;30.90;60.90;;;;;;6226378;28;1022;-76
2023/06/26 13:56:25;;;;;;;;;;;30.80;61.70;;;;;;6229183;28;1053;-76
2023/06/26 13:59:27;;;;;;;;;;;30.60;61.60;;;;;;6226988;28;1906;-76
2023/06/26 14:02:28;;;;;;;;;;;30.60;62.20;;;;;;6226092;28;1080;-77
2023/06/26 14:05:30;;;;;;;;;;;30.40;61.50;;;;;;6226514;28;1059;-78
2023/06/26 14:08:32;;;;;;;;;;;30.60;61.20;;;;;;6226117;28;1030;-78
2023/06/26 14:11:35;;;;;;;;;;;30.80;61.90;;;;;;6226034;28;1238;-78
2023/06/26 14:14:37;;;;;;;;;;;31.00;60.70;;;;;;6225727;28;1137;-77
2023/06/26 14:17:40;;;;;;;;;;;31.10;60.70;;;;;;6226034;28;981;-76
2023/06/26 14:20:41;;;;;;;;;;;31.20;61.30;;;;;;6225436;28;1975;-78
2023/06/26 14:23:43;;;;;;;;;;;31.20;59.80;;;;;;6225547;28;1041;-78
2023/06/26 14:26:46;;;;;;;;;;;31.20;60.00;;;;;;6225369;28;1086;-76
2023/06/26 14:29:48;;;;;;;;;;;31.10;59.90;;;;;;6225262;28;1062;-75
2023/06/26 14:32:49;;;;;;;;;;;31.20;59.50;;;;;;6225256;28;1977;-75
2023/06/26 14:35:51;;;;;;;;;;;31.30;59.10;;;;;;6225382;28;1182;-78
2023/06/26 14:38:53;;;;;;;;;;;31.40;59.40;;;;;;6225212;28;1902;-75
2023/06/26 14:41:56;;;;;;;;;;;31.40;57.70;;;;;;6225364;28;1017;-74
2023/06/26 14:44:58;;;;;;;;;;;31.40;58.10;;;;;;6225358;28;1098;-77
2023/06/26 14:47:59;;;;;;;;;;;31.30;56.90;;;;;;6225263;28;1112;-78
2023/06/26 14:51:01;;;;;;;;;;;31.30;56.80;;;;;;6224135;28;1433;-78
2023/06/26 14:54:03;;;;;;;;;;;31.40;56.50;;;;;;6235627;28;1433;-79
2023/06/26 14:57:07;;;;;;;;;;;31.40;56.70;;;;;;6249294;28;1049;-78
2023/06/26 15:00:10;;;;;;;;;;;31.10;54.60;;;;;;6249018;28;1906;-79
2023/06/26 15:03:12;;;;;;;;;;;31.00;55.50;;;;;;6237543;28;1516;-79
2023/06/26 15:06:14;;;;;;;;;;;31.00;54.70;;;;;;6246010;28;1143;-76
2023/06/26 15:09:16;;;;;;;;;;;31.10;54.40;;;;;;6245966;28;1199;-77
2023/06/26 15:12:20;;;;;;;;;;;31.10;54.10;;;;;;6243342;28;1535;-78
2023/06/26 15:15:22;;;;;;;;;;;31.10;55.30;;;;;;6234265;28;1464;-78
2023/06/26 15:18:23;;;;;;;;;;;30.90;55.40;;;;;;6221448;28;1037;-79
2023/06/26 15:21:25;;;;;;;;;;;31.00;55.00;;;;;;6219547;28;1910;-78
2023/06/26 15:24:27;;;;;;;;;;;30.90;55.10;;;;;;6235086;28;1394;-76
2023/06/26 15:27:30;;;;;;;;;;;30.80;55.40;;;;;;6245688;28;1171;-78
2023/06/26 15:30:31;;;;;;;;;;;30.70;55.00;;;;;;6245892;28;1836;-77
2023/06/26 15:33:33;;;;;;;;;;;30.70;54.90;;;;;;6235834;28;1671;-78
2023/06/26 15:36:35;;;;;;;;;;;30.60;55.10;;;;;;6221731;28;1448;-77
2023/06/26 15:39:37;;;;;;;;;;;30.60;54.70;;;;;;6228296;28;1902;-78
2023/06/26 15:42:47;;;;;;;;;;;30.70;55.60;;;;;;6229009;28;1369;-78
2023/06/26 15:45:49;;;;;;;;;;;30.80;55.40;;;;;;6228367;28;1409;-78
2023/06/26 15:48:50;;;;;;;;;;;30.80;55.30;;;;;;6229015;28;1404;-79
2023/06/26 15:51:52;;;;;;;;;;;30.70;55.50;;;;;;6229559;28;1356;-76
2023/06/26 15:54:53;;;;;;;;;;;30.70;55.10;;;;;;6229069;28;1278;-78
2023/06/26 15:57:56;;;;;;;;;;;30.60;56.10;;;;;;6221937;28;3227;-78
2023/06/26 16:00:58;;;;;;;;;;;30.40;55.90;;;;;;6219791;28;3725;-76
2023/06/26 16:04:00;;;;;;;;;;;30.40;55.90;;;;;;6234777;28;1638;-78
2023/06/26 16:07:02;;;;;;;;;;;30.50;56.30;;;;;;6234662;28;2081;-78
2023/06/26 16:10:04;;;;;;;;;;;30.50;56.90;;;;;;6228388;28;1052;-79
2023/06/26 16:13:07;;;;;;;;;;;30.40;55.90;;;;;;6228711;28;1040;-76
2023/06/26 16:16:08;;;;;;;;;;;30.40;56.80;;;;;;6238420;28;1817;-78
2023/06/26 16:19:10;;;;;;;;;;;30.00;56.80;;;;;;6229200;28;2295;-77
2023/06/26 16:22:12;;;;;;;;;;;29.90;56.80;;;;;;6228083;28;1320;-77
2023/06/26 16:25:13;;;;;;;;;;;29.70;56.70;;;;;;6236558;28;1722;-77
2023/06/26 16:28:17;;;;;;;;;;;29.80;56.30;;;;;;6252978;28;1104;-78
2023/06/26 16:31:18;;;;;;;;;;;29.50;56.60;;;;;;6250066;28;1697;-78
2023/06/26 16:34:20;;;;;;;;;;;29.20;57.00;;;;;;6235444;28;1784;-76
2023/06/26 16:37:22;;;;;;;;;;;29.30;57.30;;;;;;6242646;28;1734;-77
2023/06/26 16:40:23;;;;;;;;;;;29.20;57.60;;;;;;6250123;28;2355;-75
2023/06/26 16:43:26;;;;;;;;;;;29.20;57.50;;;;;;6247683;28;1702;-78
2023/06/26 16:46:28;;;;;;;;;;;29.00;57.50;;;;;;6249232;28;1816;-78
2023/06/26 16:49:30;;;;;;;;;;;29.00;57.90;;;;;;6250827;28;1096;-78
2023/06/26 16:52:31;;;;;;;;;;;29.00;58.30;;;;;;6244346;28;1670;-78
2023/06/26 16:55:33;;;;;;;;;;;29.10;58.10;;;;;;6223182;28;3328;-78
2023/06/26 16:58:36;;;;;;;;;;;29.00;57.60;;;;;;6233433;28;1795;-75
2023/06/26 17:01:38;;;;;;;;;;;28.70;57.50;;;;;;6251903;28;1913;-76
2023/06/26 17:04:39;;;;;;;;;;;28.70;57.70;;;;;;6251804;28;1033;-75
2023/06/26 17:07:41;;;;;;;;;;;28.80;57.20;;;;;;6246284;28;1639;-77
2023/06/26 17:10:43;;;;;;;;;;;28.90;57.10;;;;;;6229831;28;3875;-76
2023/06/26 17:13:46;;;;;;;;;;;28.90;56.90;;;;;;6209435;28;3578;-78
2023/06/26 17:16:48;;;;;;;;;;;28.90;56.60;;;;;;6244226;28;3227;-77
2023/06/26 17:19:49;;;;;;;;;;;28.50;56.20;;;;;;6229924;28;1910;-78
2023/06/26 17:22:51;;;;;;;;;;;28.60;56.50;;;;;;6246806;28;1663;-75
2023/06/26 17:25:53;;;;;;;;;;;28.70;55.70;;;;;;6237331;28;1650;-79
2023/06/26 17:28:56;;;;;;;;;;;28.50;55.40;;;;;;6245213;28;1762;-76
2023/06/26 17:31:58;;;;;;;;;;;28.40;54.90;;;;;;6251420;28;1046;-76
2023/06/26 17:35:01;;;;;;;;;;;28.40;54.10;;;;;;6232751;28;1663;-77
2023/06/26 17:38:04;;;;;;;;;;;28.40;54.20;;;;;;6229578;28;1785;-76
2023/06/26 17:41:06;;;;;;;;;;;28.30;53.60;;;;;;6225320;28;1985;-77
2023/06/26 17:44:09;;;;;;;;;;;28.50;53.90;;;;;;6226985;28;1238;-75
2023/06/26 17:47:10;;;;;;;;;;;28.20;52.60;;;;;;6207579;28;1328;-76
2023/06/26 17:50:13;;;;;;;;;;;28.20;52.20;;;;;;6202237;28;1066;-76
2023/06/26 17:53:14;;;;;;;;;;;28.20;51.10;;;;;;6208236;28;3444;-77
2023/06/26 17:56:16;;;;;;;;;;;28.20;51.10;;;;;;6226167;28;3119;-77
2023/06/26 17:59:19;;;;;;;;;;;28.20;51.50;;;;;;6225057;28;2675;-78